Tropical Cyclones
[Index]
Main Index Home Page Stock Weather Photos Extreme Storms Discussion Storm News and Storm Chasing Reports Tropical Cyclones / Hurricanes / Typhoons Weather Data and Links Wild Fires / Bushfires Weather Observation Techniques Weather Picture Catalogue Tornado Pictures and Reports Stock Video Footage and DVDs for sale
Season 1999-2000 Tropical Cyclone KIRRILY Track Map
Season 1999-2000 Summaries: [BoM-AU] [JTWC-AU] [JTWC-SIO] [JTWC-SPAC] [JTWC-SH]
<<- Previous TC | JTWC 1999-2000 Season | Next TC ->>

click for intensity scale information  Lat/long Grid: Show Hide

 Date Labels: Show Hide

Joint Typhoon Warning Centre Cyclone Data

Name: KIRRILY

24 Jan 2000 12:00 UTC to 01 Feb 2000 18:00 UTC

    date/time    lat    long     hPa   cat  kts
2000-01-24 12   11.8   102.6                  25          
2000-01-24 18   12.0   103.2                  20          
2000-01-25 00   12.3   104.0                  20          
2000-01-25 06   12.6   105.3                  25          
2000-01-25 12   12.8   106.1                  25          
2000-01-25 18   13.0   106.9                  25          
2000-01-26 00   13.5   108.4                  25          
2000-01-26 06   14.1   109.8                  25          
2000-01-26 12   14.9   110.7                  25          
2000-01-26 18   15.7   111.6                  25          
2000-01-27 00   16.4   112.3                  25          
2000-01-27 06   17.1   112.4                  30          
2000-01-27 12   17.8   112.2                  30          
2000-01-27 18   18.2   111.8                  30          
2000-01-28 00   18.4   111.0                  35          
2000-01-28 06   18.5   110.1            1     50          
2000-01-28 12   18.8   109.4            2     55          
2000-01-28 18   19.2   108.8            2     65          
2000-01-29 00   19.7   108.2            2     70          
2000-01-29 06   20.3   107.5            3     80          
2000-01-29 12   20.9   107.0            3     85          
2000-01-29 18   21.4   106.5            3     75          
2000-01-30 00   21.9   106.1            2     70          
2000-01-30 06   22.6   105.8            2     65          
2000-01-30 12   23.1   105.7            2     65          
2000-01-30 18   23.3   105.6            2     55          
2000-01-31 00   23.4   105.5            1     45          
2000-01-31 06   23.4   105.3                  35          
2000-01-31 12   23.1   105.2                  35          
2000-01-31 18   22.9   105.0                  35          
2000-02-01 00   22.6   104.7                  30          
2000-02-01 06   22.4   104.1                  30          
2000-02-01 12   22.1   103.5                  30          
2000-02-01 18   21.9   102.9                  25          
Winds are 1-min average.

Tropical cyclone tracks developed by Michael Bath using data from the Joint Typhoon Warning Centre Best Tracks and Google Maps.


[Australian Severe Weather index] [Copyright Notice] [Email Contacts] [Search This Site] [Privacy Policy]
Document: tropical_cyclone_kirrily.htm Updated: 18 September 2016